Latest Weather Observations for Neptune Island

IDS60801

Issued at 2:02 pm CST Saturday 18 April 2015 (issued every 30 minutes, with the page automatically refreshed every 10 minutes)

About weather observations | Map of weather stations | Latest weather observations for SA | Other Formats
Station Details ID: 018115 Name: NEPTUNE ISLAND Lat: -35.34 Lon: 136.12 Height: 32.0 m
Data from the previous 72 hours. | See also: Recent months at Neptune Island
Date/Time
CST
Temp
°C
App
Temp
°C
Dew
Point
Rel
Hum
%
Delta-T
°C
Wind Press
QNH
hPa
Press
MSL
hPa
Rain
since 9 am
mm
Dir
 
Spd
km/h
Gust
km/h
Spd
kts
Gust
kts
18/02:00pm 14.0 7.2 11.9 87 1.1 SSW 39 48 21 26 1017.6 1017.5 1.4
18/01:30pm 14.3 7.2 12.3 88 1.1 SSW 41 50 22 27 1017.5 1017.4 1.0
18/01:00pm 14.2 5.7 13.1 93 0.6 SSW 50 61 27 33 1017.2 1017.1 1.0
18/12:30pm 14.8 6.9 13.8 94 0.6 SSW 48 61 26 33 1017.1 1017.0 1.0
18/12:00pm 15.0 7.5 13.9 93 0.6 SSW 46 57 25 31 1016.9 1016.8 1.0
18/11:40am 16.0 8.1 15.0 94 0.6 WSW 50 63 27 34 1016.6 1016.5 0.8
18/11:30am 16.1 6.9 15.1 94 0.6 W 57 74 31 40 1016.4 1016.3 0.8
18/11:19am 18.2 10.5 14.5 79 2.1 W 48 74 26 40 1016.2 1016.1 0.0
18/11:00am 19.0 12.1 14.5 75 2.6 WNW 44 54 24 29 1016.3 1016.2 0.0
18/10:30am 19.0 11.4 14.7 76 2.5 W 48 56 26 30 1016.3 1016.2 0.0
18/10:00am 18.8 10.8 13.6 72 3.0 W 48 54 26 29 1016.3 1016.2 0.0
18/09:30am 18.4 10.8 13.5 73 2.8 W 46 56 25 30 1016.2 1016.1 0.0
18/09:00am 18.1 11.3 14.4 79 2.1 W 43 56 23 30 1016.2 1016.1 0.6
18/08:30am 17.5 10.7 14.4 82 1.8 W 43 50 23 27 1016.0 1015.9 0.6
18/08:00am 17.0 9.7 13.5 80 2.0 W 44 52 24 28 1015.6 1015.5 0.6
18/07:30am 16.5 9.7 14.2 86 1.3 W 43 61 23 33 1015.3 1015.3 0.6
18/07:00am 16.4 10.8 14.4 88 1.1 WNW 37 44 20 24 1015.2 1015.2 0.6
18/06:30am 16.1 11.2 14.3 89 1.0 WNW 33 41 18 22 1015.2 1015.2 0.6
18/06:11am 15.8 10.1 14.2 90 0.9 WNW 37 56 20 30 1015.3 1015.3 0.6
18/06:00am 15.9 8.2 14.3 90 0.9 WNW 48 59 26 32 1015.2 1015.2 0.6
18/05:30am 16.8 9.6 13.7 82 1.8 W 44 50 24 27 1015.0 1015.0 0.6
18/05:00am 16.4 9.3 13.9 85 1.4 WNW 44 54 24 29 1015.1 1015.1 0.6
18/04:32am 16.6 11.1 13.5 82 1.7 WNW 35 56 19 30 1014.8 1014.8 0.6
18/04:30am 16.5 11.0 13.6 83 1.6 WNW 35 46 19 25 1014.9 1014.9 0.6
18/04:00am 16.6 10.8 12.6 77 2.2 WNW 35 44 19 24 1014.8 1014.8 0.6
18/03:30am 16.3 10.8 12.5 78 2.1 WNW 33 39 18 21 1014.8 1014.8 0.6
18/03:00am 16.1 11.2 12.7 80 1.9 WNW 30 37 16 20 1015.1 1015.1 0.6
18/02:30am 15.8 10.3 12.0 78 2.1 WNW 32 37 17 20 1015.5 1015.4 0.6
18/02:00am 15.7 10.2 11.7 77 2.2 WNW 32 39 17 21 1015.7 1015.6 0.6
18/01:30am 15.7 10.5 11.7 77 2.2 WNW 30 35 16 19 1016.1 1016.0 0.6
18/01:00am 15.5 10.5 11.1 75 2.4 WNW 28 32 15 17 1016.4 1016.3 0.6
18/12:30am 15.4 10.7 10.8 74 2.4 WNW 26 30 14 16 1016.6 1016.5 0.6
18/12:00am 15.4 11.1 10.6 73 2.5 W 24 30 13 16 1017.1 1017.0 0.6
 
Date/Time
CST
Temp
°C
App
Temp
°C
Dew
Point
Rel
Hum
%
Delta-T
°C
Wind Press
QNH
hPa
Press
MSL
hPa
Rain
since 9 am
mm
Dir
 
Spd
km/h
Gust
km/h
Spd
kts
Gust
kts
17/11:30pm 15.3 11.4 10.7 74 2.4 W 22 28 12 15 1017.5 1017.4 0.6
17/11:00pm 15.1 11.4 10.1 72 2.6 W 20 24 11 13 1017.9 1017.8 0.6
17/10:30pm 15.0 11.4 9.8 71 2.7 W 19 22 10 12 1018.3 1018.2 0.6
17/10:00pm 15.0 11.3 9.6 70 2.8 WSW 19 22 10 12 1018.3 1018.2 0.6
17/09:30pm 15.1 10.8 9.5 69 2.9 SW 22 26 12 14 1018.5 1018.4 0.6
17/09:00pm 15.2 11.1 10.0 71 2.7 WSW 22 30 12 16 1018.4 1018.3 0.6
17/08:30pm 14.9 10.8 8.6 66 3.2 SW 20 28 11 15 1018.2 1018.1 0.6
17/08:00pm 15.1 11.0 8.8 66 3.2 WSW 20 26 11 14 1017.9 1017.8 0.6
17/07:30pm 15.2 11.3 9.6 69 2.9 SW 20 24 11 13 1017.7 1017.6 0.6
17/07:00pm 15.2 11.0 9.6 69 2.9 SW 22 28 12 15 1017.5 1017.4 0.6
17/06:30pm 15.4 11.3 10.0 70 2.8 SW 22 28 12 15 1017.4 1017.3 0.6
17/06:00pm 15.6 10.9 10.6 72 2.6 SW 26 32 14 17 1017.3 1017.2 0.6
17/05:30pm 15.8 11.7 11.6 76 2.3 SSW 24 28 13 15 1017.0 1016.9 0.6
17/05:00pm 15.9 11.8 11.3 74 2.5 SSW 24 30 13 16 1016.9 1016.8 0.6
17/04:30pm 16.1 12.8 11.5 74 2.5 SSW 20 26 11 14 1016.9 1016.8 0.6
17/04:00pm 16.1 12.0 11.3 73 2.6 SSW 24 28 13 15 1016.9 1016.8 0.6
17/03:30pm 16.2 13.1 12.2 77 2.2 SSW 20 26 11 14 1017.0 1016.9 0.6
17/03:00pm 16.5 13.6 12.8 79 2.1 SSW 20 26 11 14 1017.3 1017.2 0.6
17/02:30pm 15.2 13.5 12.3 83 1.6 SSW 13 17 7 9 1017.6 1017.5 0.6
17/02:00pm 15.4 13.3 12.5 83 1.6 SSW 15 19 8 10 1017.8 1017.7 0.6
17/01:30pm 15.4 13.1 12.9 85 1.4 SSE 17 20 9 11 1018.2 1018.1 0.6
17/01:00pm 15.8 13.4 12.5 81 1.8 SE 17 20 9 11 1018.4 1018.3 0.6
17/12:30pm 15.6 13.2 12.7 83 1.6 SE 17 20 9 11 1019.1 1019.0 0.6
17/12:00pm 15.7 13.0 13.0 84 1.5 ESE 19 24 10 13 1019.6 1019.5 0.6
17/11:30am 15.3 12.1 13.1 87 1.2 ESE 22 28 12 15 1020.0 1019.9 0.6
17/11:00am 15.2 11.9 12.9 86 1.3 ESE 22 28 12 15 1020.3 1020.2 0.6
17/10:30am 15.1 12.3 13.3 89 1.0 ESE 20 26 11 14 1020.6 1020.5 0.2
17/10:00am 14.7 10.7 13.1 90 0.9 ESE 26 32 14 17 1020.7 1020.6 0.2
17/09:30am 14.6 10.6 13.1 91 0.8 ESE 26 30 14 16 1021.1 1021.0 0.2
17/09:00am 14.4 9.5 12.6 89 1.0 SE 30 35 16 19 1021.4 1021.3 -
17/08:30am 14.6 9.1 12.3 86 1.2 SE 33 39 18 21 1021.3 1021.2 -
17/08:00am 14.6 8.6 12.1 85 1.4 SE 35 43 19 23 1021.1 1021.0 -
17/07:30am 14.7 9.2 12.4 86 1.3 SE 33 39 18 21 1020.8 1020.7 -
17/07:00am 14.8 9.4 12.3 85 1.4 SE 32 37 17 20 1020.4 1020.3 -
17/06:30am 14.9 9.2 12.9 88 1.1 SE 35 43 19 23 1020.4 1020.3 -
17/06:00am 14.9 9.5 12.8 87 1.2 SE 33 41 18 22 1020.4 1020.3 -
17/05:30am 15.0 10.1 12.5 85 1.4 SSE 30 39 16 21 1020.9 1020.8 -
17/05:00am 15.1 10.2 12.4 84 1.5 SSE 30 35 16 19 1021.1 1021.0 -
17/04:30am 15.1 10.5 12.4 84 1.5 SSE 28 33 15 18 1020.9 1020.8 -
17/04:00am 15.3 11.2 12.8 85 1.4 SSE 26 30 14 16 1021.1 1021.0 -
17/03:30am 15.2 11.1 12.7 85 1.4 SE 26 30 14 16 1021.1 1021.0 -
17/03:00am 15.1 12.2 13.0 87 1.2 SE 20 28 11 15 1021.6 1021.5 0.0
17/02:30am 15.1 12.2 13.0 87 1.2 SE 20 26 11 14 1022.2 1022.1 -
17/02:00am 15.1 11.8 12.8 86 1.3 ESE 22 26 12 14 1022.4 1022.3 -
17/01:30am 15.2 12.2 12.7 85 1.4 ESE 20 26 11 14 1022.6 1022.5 -
17/01:00am 15.1 12.0 12.2 83 1.6 E 20 26 11 14 1022.9 1022.8 -
17/12:30am 15.1 11.6 12.2 83 1.6 ESE 22 28 12 15 1023.0 1022.9 -
17/12:00am 15.0 11.1 12.1 83 1.6 ESE 24 28 13 15 1023.3 1023.2 -
 
Date/Time
CST
Temp
°C
App
Temp
°C
Dew
Point
Rel
Hum
%
Delta-T
°C
Wind Press
QNH
hPa
Press
MSL
hPa
Rain
since 9 am
mm
Dir
 
Spd
km/h
Gust
km/h
Spd
kts
Gust
kts
16/11:30pm 15.0 10.8 12.3 84 1.5 ESE 26 32 14 17 1023.3 1023.2 -
16/11:00pm 15.0 10.4 12.3 84 1.5 ESE 28 35 15 19 1023.7 1023.6 -
16/10:30pm 14.9 10.6 12.0 83 1.6 ESE 26 32 14 17 1024.2 1024.1 -
16/10:00pm 14.9 10.7 12.4 85 1.4 ESE 26 35 14 19 1024.4 1024.3 -
16/09:30pm 14.9 11.2 12.6 86 1.3 ESE 24 30 13 16 1024.5 1024.4 -
16/09:00pm 14.8 10.7 12.7 87 1.1 SE 26 32 14 17 1024.7 1024.6 -
16/08:30pm 14.7 10.1 12.4 86 1.2 SE 28 33 15 18 1024.8 1024.7 -
16/08:00pm 14.9 10.1 12.8 87 1.2 ESE 30 35 16 19 1024.6 1024.5 -
16/07:30pm 14.9 10.4 12.6 86 1.3 SE 28 35 15 19 1024.6 1024.5 -
16/07:00pm 14.9 9.6 12.4 85 1.4 SE 32 37 17 20 1024.6 1024.5 -
16/06:30pm 15.1 9.7 12.2 83 1.6 SE 32 39 17 21 1023.8 1023.7 -
16/06:00pm 15.9 9.8 11.9 77 2.2 SSE 35 43 19 23 1023.4 1023.3 -
16/05:30pm 16.2 10.6 12.0 76 2.3 SSE 33 43 18 23 1023.0 1022.9 -
16/05:00pm 16.2 10.7 12.0 76 2.3 SSE 32 41 17 22 1023.2 1023.1 -
16/04:30pm 16.5 12.3 12.5 77 2.2 SSE 26 35 14 19 1024.1 1024.0 -
16/04:00pm 16.6 - 11.9 74 2.6 - - - - - 1024.2 1024.1 -
16/02:00pm 17.4 14.6 12.5 73 2.7 SE 19 22 10 12 1024.9 1024.8 -
16/01:30pm 16.5 14.5 12.7 78 2.1 E 15 20 8 11 1025.3 1025.2 -
16/01:00pm 16.5 13.7 12.7 78 2.1 E 19 22 10 12 1025.7 1025.6 -
16/12:30pm 16.6 10.8 6.4 51 5.0 ESE 26 30 14 16 1025.9 1025.8 -
16/12:00pm 16.3 - - - - ESE 24 32 13 17 1025.9 1025.8 -
16/11:30am 17.7 - - - - E 20 28 11 15 1026.0 1025.9 0.0
16/11:00am 17.0 13.4 12.9 77 2.3 ESE 24 30 13 16 1026.2 1026.1 0.0
16/10:30am 16.9 13.7 13.0 78 2.2 ESE 22 28 12 15 1026.4 1026.3 0.0
16/10:00am 16.5 12.8 12.8 79 2.1 ESE 24 30 13 16 1026.6 1026.5 0.0
16/09:30am 16.5 12.5 13.0 80 1.9 ESE 26 30 14 16 1026.7 1026.6 0.0
16/09:00am 16.6 11.9 13.1 80 1.9 ESE 30 35 16 19 1026.6 1026.5 0.0
16/08:30am 16.6 12.7 13.3 81 1.8 ESE 26 32 14 17 1026.5 1026.4 0.0
16/08:00am 16.3 13.1 13.0 81 1.8 ESE 22 28 12 15 1026.6 1026.5 0.0
16/07:30am 16.4 13.2 13.1 81 1.8 ESE 22 26 12 14 1026.4 1026.3 0.0
16/07:00am 16.2 13.0 13.1 82 1.7 ESE 22 28 12 15 1025.9 1025.8 0.0
16/06:30am 16.4 13.3 13.3 82 1.7 SE 22 28 12 15 1025.7 1025.6 0.0
16/06:00am 16.3 13.1 13.2 82 1.7 SE 22 26 12 14 1025.2 1025.1 0.0
16/05:30am 16.3 12.8 13.4 83 1.6 SE 24 28 13 15 1024.6 1024.5 0.0
16/05:00am 16.3 12.4 13.4 83 1.6 SE 26 32 14 17 1023.7 1023.6 0.0
16/04:30am 16.6 12.5 13.7 83 1.6 SE 28 32 15 17 1023.4 1023.3 0.0
16/04:00am 16.4 12.3 13.7 84 1.5 SE 28 33 15 18 1023.0 1022.9 0.0
16/03:30am 16.8 12.8 14.1 84 1.5 SSE 28 33 15 18 1023.5 1023.4 0.0
16/03:00am 16.9 13.7 14.2 84 1.5 SE 24 32 13 17 1023.6 1023.5 0.0
16/02:30am 16.9 12.9 14.2 84 1.5 SSE 28 33 15 18 1023.9 1023.8 0.0
16/02:00am 17.3 13.5 14.6 84 1.6 SSE 28 32 15 17 1024.0 1023.9 0.0
16/01:30am 17.0 12.7 14.3 84 1.5 S 30 35 16 19 1024.4 1024.3 0.0
16/01:00am 17.3 14.5 14.4 83 1.7 SSE 22 26 12 14 1024.5 1024.4 0.0
16/12:30am 17.2 14.9 14.1 82 1.8 SSE 19 24 10 13 1024.3 1024.2 0.0
16/12:00am 17.3 15.0 14.2 82 1.8 SSE 19 22 10 12 1024.4 1024.3 0.0
 
Date/Time
CST
Temp
°C
App
Temp
°C
Dew
Point
Rel
Hum
%
Delta-T
°C
Wind Press
QNH
hPa
Press
MSL
hPa
Rain
since 9 am
mm
Dir
 
Spd
km/h
Gust
km/h
Spd
kts
Gust
kts
15/11:30pm 17.3 15.1 14.4 83 1.7 S 19 20 10 11 1024.3 1024.2 0.0
15/11:00pm 17.3 15.5 14.4 83 1.7 SSE 17 22 9 12 1024.0 1023.9 0.0
15/10:30pm 17.2 15.7 14.3 83 1.7 S 15 19 8 10 1024.1 1024.0 0.0
15/10:00pm 17.4 16.0 14.5 83 1.7 S 15 17 8 9 1024.3 1024.2 0.0
15/09:30pm 17.4 16.4 14.5 83 1.7 SSE 13 17 7 9 1024.1 1024.0 0.0
15/09:00pm 17.5 15.4 14.6 83 1.7 S 19 20 10 11 1023.6 1023.5 0.0
15/08:30pm 17.7 15.6 14.6 82 1.8 S 19 20 10 11 1023.3 1023.2 0.0
15/08:00pm 17.7 15.9 14.4 81 1.9 S 17 19 9 10 1023.5 1023.4 0.0
15/07:30pm 17.7 16.3 14.4 81 1.9 SSW 15 17 8 9 1023.2 1023.1 0.0
15/07:00pm 17.9 16.9 14.6 81 1.9 SSW 13 15 7 8 1023.0 1022.9 0.0
15/06:30pm 18.1 16.7 14.6 80 2.0 SW 15 17 8 9 1022.7 1022.6 0.0
15/06:00pm 18.2 15.8 14.5 79 2.1 SSW 20 24 11 13 1022.0 1021.9 0.0
15/05:30pm 18.7 16.4 14.6 77 2.4 SSW 20 24 11 13 1021.7 1021.6 0.0
15/05:00pm 19.1 16.5 14.8 76 2.5 SW 22 24 12 13 1021.6 1021.5 0.0
15/04:30pm 19.7 17.6 15.1 75 2.7 SW 20 24 11 13 1021.3 1021.2 0.0
15/04:00pm 19.9 17.3 14.9 73 2.9 SW 22 26 12 14 1021.4 1021.3 0.0
15/03:30pm 19.8 17.2 15.0 74 2.8 WSW 22 24 12 13 1021.2 1021.1 0.0
15/03:00pm 20.1 17.2 15.1 73 2.9 SW 24 26 13 14 1021.1 1021.0 0.0
15/02:30pm 20.0 17.2 15.4 75 2.7 SW 24 28 13 15 1020.8 1020.7 0.0

Other Formats:

Comma delimited format used in spreadsheet applications
http://www.bom.gov.au/fwo/IDS60801/IDS60801.94804.axf

JavaScript Object Notation format (JSON) in row-major order
http://www.bom.gov.au/fwo/IDS60801/IDS60801.94804.json